Galax, VA

1:40 AM EDT on October 31, 2014 (GMT -0400)
KVAHILLS5 | Change Station
CLOSE
Current Station
Personal Weather Station
Location: Terry N4RQ Hillsville, VA
Elevation: 2444 ft
Nearby Weather Stations

Elev 2444 ft 36.73 °N, 80.67 °W | Updated 1 minute ago

Clear
Clear
31.7 °F
Feels Like 32 °F
N
0.0
Wind Variable Wind from SSW

Today
High -- | Low -- °F
--% Chance of Precip.
Yesterday
High -- | Low -- °F
Precip. -- in
7:45 AM 6:27 PM
First Quarter, 51% visible
Pressure 30.01 in
Visibility 10.0 miles
Clouds Clear
Windchill 32 °F
Dew Point 29 °F
Humidity 90%
Rainfall 0.00 in
Snow Depth Not available.
UV 0 out of 12
Pollen .60 out of 12
Air Quality Not available.
Flu Activity Not available.
METAR KHLX 310535Z AUTO 00000KT 10SM CLR 04/01 A3001 RMK AO2 T00360005

More Conditions Fewer Conditions

Pressure 30.01 in
Visibility 10.0 miles
Clouds Clear
Windchill 32 °F
Dew Point 29 °F
Humidity 90%
Rainfall 0.00 in
Snow Depth Not available.
UV 0 out of 12
Pollen .60 out of 12
Air Quality Not available.
Flu Activity Not available.
METAR KHLX 310535Z AUTO 00000KT 10SM CLR 04/01 A3001 RMK AO2 T00360005

More Conditions Fewer Conditions

10-Day Weather Forecast

Almanac

Astronomy

Oct. 31, 2014 Rise Set
Actual Time
Civil Twilight
Nautical Twilight
Astronomical Twilight
Moon
Length of Visible Light
Length of Day
Tomorrow will be .
, % of the Moon is Illuminated

Today's Extremes

State Highs State Lows

Community

WunderPhotos

Upload Photos

1,766,570 photos uploaded!

WunderBlogs® & News

Nearby

Air Quality

  Air Quality AQ Index Pollutant
Not available.

Snow Depth

Station Depth Elevation

Earthquake Activity

City Distance Mag. Time & Date
Minimum magnitude displayed is 2.5.

Coastal Water Temperatures

Place Temperature

Nearby Weather Stations